サマーラ の空港の天気 - METARとTAF

クルモフ国際空港 ( UWWW / KUF ) - ロシア サマーラ
飛行場実況気象(Metar)
観測時間10/18 11:30 MSK (10/18 08:30 UTC)
風向・風速南西 6m/s
視程10km以上
天気現象
なし
気温13℃
湿度58%
気圧1016hPa
METARUWWW 180830Z 22006MPS CAVOK 13/05 Q1016 R15/CLRD60 NOSIG RMK QFE750/1001
過去の天気等 Google飛行場航空写真 Wunderground天気予報

過去48時間のMETAR

飛行場予報(TAF)
発表時間: 10/18 10:58 MSK (10/18 07:58 UTC)
予報対象時間: 18日12時 MSK ~ 19日12時 MSK
風向・風速南南西 6m/s 瞬間風速 12m/s
視程10km以上
全天の8割程度の雲 雲底高度 610m
18日12時 MSK ~ 18日17時 MSK に一時的に
風向・風速西南西 8m/s 瞬間風速 15m/s
視程4000m
天気現象弱いしゅう雨
全天の8割程度の積乱雲 雲底高度 340m
18日17時 MSK ~ 18日18時 MSK に徐々に
風向・風速西 3m/s 瞬間風速 9m/s
19日0時 MSK から
風向・風速西北西 3m/s 瞬間風速 8m/s
視程5000m
天気現象もや
全天の8割程度の雲 雲底高度 340m
19日0時 MSK ~ 19日7時 MSK に一時的に
風向・風速北 3m/s 瞬間風速 9m/s
視程2100m
天気現象もや
少しの雲 雲底高度 120m
全天の8割程度の雲 雲底高度 210m
19日7時 MSK ~ 19日9時 MSK に徐々に
風向・風速北東 5m/s 瞬間風速 12m/s
TAF UWWW 180758Z 1809/1909 21006G12MPS 9999 BKN020 TX12/1811Z TN07/1901Z
TEMPO 1809/1814 24008G15MPS 4000 -SHRA BKN011CB
BECMG 1814/1815 27003G09MPS
FM182100 30003G08MPS 5000 BR BKN011
TEMPO 1821/1904 36003G09MPS 2100 BR FEW004 BKN007
BECMG 1904/1906 04005G12MPS